sensor_id;sensor_type;location;lat;lon;timestamp;P1;P4;P2;P0;N10;N4;N25;N1;N05;TS
67700;SPS30;55380;54.156;18.708;2023-03-26T00:00:00;5.2;;5.2;4.9;;;;;;
67700;SPS30;55380;54.156;18.708;2023-03-26T00:02:00;5.1;;5.1;4.8;;;;;;
67700;SPS30;55380;54.156;18.708;2023-03-26T00:04:00;4.9;;4.9;4.6;;;;;;
67700;SPS30;55380;54.156;18.708;2023-03-26T00:06:00;4.5;;4.5;4.3;;;;;;
67700;SPS30;55380;54.156;18.708;2023-03-26T00:08:00;4.6;;4.6;4.3;;;;;;
67700;SPS30;55380;54.156;18.708;2023-03-26T00:10:00;4.6;;4.6;4.4;;;;;;
67700;SPS30;55380;54.156;18.708;2023-03-26T00:12:00;5.0;;5.0;4.7;;;;;;
67700;SPS30;55380;54.156;18.708;2023-03-26T00:14:00;4.7;;4.7;4.4;;;;;;
67700;SPS30;55380;54.156;18.708;2023-03-26T00:16:00;4.4;;4.4;4.2;;;;;;
67700;SPS30;55380;54.156;18.708;2023-03-26T00:18:00;4.6;;4.6;4.3;;;;;;
67700;SPS30;55380;54.156;18.708;2023-03-26T00:20:00;4.3;;4.3;4.1;;;;;;
67700;SPS30;55380;54.156;18.708;2023-03-26T00:22:00;4.3;;4.3;4.0;;;;;;
67700;SPS30;55380;54.156;18.708;2023-03-26T00:24:01;4.6;;4.6;4.4;;;;;;
67700;SPS30;55380;54.156;18.708;2023-03-26T00:26:00;4.3;;4.3;4.1;;;;;;
67700;SPS30;55380;54.156;18.708;2023-03-26T00:28:00;4.1;;4.1;3.9;;;;;;
67700;SPS30;55380;54.156;18.708;2023-03-26T00:30:00;4.1;;4.1;3.9;;;;;;
67700;SPS30;55380;54.156;18.708;2023-03-26T00:32:00;4.4;;4.4;4.1;;;;;;
67700;SPS30;55380;54.156;18.708;2023-03-26T00:34:00;4.5;;4.5;4.2;;;;;;
67700;SPS30;55380;54.156;18.708;2023-03-26T00:36:00;4.3;;4.3;4.0;;;;;;
67700;SPS30;55380;54.156;18.708;2023-03-26T00:38:00;4.3;;4.3;4.0;;;;;;
67700;SPS30;55380;54.156;18.708;2023-03-26T00:40:00;4.8;;4.8;4.5;;;;;;
67700;SPS30;55380;54.156;18.708;2023-03-26T00:42:00;4.8;;4.8;4.6;;;;;;
67700;SPS30;55380;54.156;18.708;2023-03-26T00:44:00;5.2;;5.2;4.9;;;;;;
67700;SPS30;55380;54.156;18.708;2023-03-26T00:46:00;5.1;;5.1;4.8;;;;;;
67700;SPS30;55380;54.156;18.708;2023-03-26T00:48:00;5.3;;5.3;5.0;;;;;;
67700;SPS30;55380;54.156;18.708;2023-03-26T00:50:00;5.2;;5.1;4.8;;;;;;
67700;SPS30;55380;54.156;18.708;2023-03-26T00:52:00;5.1;;5.1;4.8;;;;;;
67700;SPS30;55380;54.156;18.708;2023-03-26T00:54:00;5.1;;5.1;4.8;;;;;;
67700;SPS30;55380;54.156;18.708;2023-03-26T00:56:00;4.9;;4.9;4.6;;;;;;
67700;SPS30;55380;54.156;18.708;2023-03-26T00:58:00;4.3;;4.3;4.0;;;;;;
67700;SPS30;55380;54.156;18.708;2023-03-26T01:00:00;4.4;;4.4;4.1;;;;;;
67700;SPS30;55380;54.156;18.708;2023-03-26T01:02:00;4.6;;4.6;4.4;;;;;;
67700;SPS30;55380;54.156;18.708;2023-03-26T01:06:00;4.3;;4.3;4.0;;;;;;
67700;SPS30;55380;54.156;18.708;2023-03-26T01:08:00;4.7;;4.7;4.5;;;;;;
67700;SPS30;55380;54.156;18.708;2023-03-26T01:10:00;4.5;;4.5;4.2;;;;;;
67700;SPS30;55380;54.156;18.708;2023-03-26T01:12:01;4.1;;4.1;3.9;;;;;;
67700;SPS30;55380;54.156;18.708;2023-03-26T01:14:01;4.5;;4.5;4.3;;;;;;
67700;SPS30;55380;54.156;18.708;2023-03-26T01:16:00;4.6;;4.6;4.3;;;;;;
67700;SPS30;55380;54.156;18.708;2023-03-26T01:18:00;5.1;;5.1;4.8;;;;;;
67700;SPS30;55380;54.156;18.708;2023-03-26T01:20:04;5.0;;5.0;4.7;;;;;;
67700;SPS30;55380;54.156;18.708;2023-03-26T01:22:00;5.0;;5.0;4.8;;;;;;
67700;SPS30;55380;54.156;18.708;2023-03-26T01:24:01;4.6;;4.6;4.3;;;;;;
67700;SPS30;55380;54.156;18.708;2023-03-26T01:26:02;4.7;;4.7;4.5;;;;;;
67700;SPS30;55380;54.156;18.708;2023-03-26T01:28:00;4.7;;4.7;4.5;;;;;;
67700;SPS30;55380;54.156;18.708;2023-03-26T01:30:01;4.7;;4.7;4.4;;;;;;
67700;SPS30;55380;54.156;18.708;2023-03-26T01:32:02;4.5;;4.5;4.3;;;;;;
67700;SPS30;55380;54.156;18.708;2023-03-26T01:34:01;4.8;;4.8;4.5;;;;;;
67700;SPS30;55380;54.156;18.708;2023-03-26T01:36:01;5.0;;5.0;4.7;;;;;;
67700;SPS30;55380;54.156;18.708;2023-03-26T01:38:01;4.8;;4.8;4.6;;;;;;
67700;SPS30;55380;54.156;18.708;2023-03-26T01:40:02;4.7;;4.7;4.4;;;;;;
67700;SPS30;55380;54.156;18.708;2023-03-26T01:42:01;4.9;;4.9;4.6;;;;;;
67700;SPS30;55380;54.156;18.708;2023-03-26T01:44:02;5.2;;5.2;4.9;;;;;;
67700;SPS30;55380;54.156;18.708;2023-03-26T01:46:01;4.7;;4.7;4.4;;;;;;
67700;SPS30;55380;54.156;18.708;2023-03-26T01:48:00;5.0;;5.0;4.7;;;;;;
67700;SPS30;55380;54.156;18.708;2023-03-26T01:50:00;5.0;;5.0;4.8;;;;;;
67700;SPS30;55380;54.156;18.708;2023-03-26T01:52:00;4.8;;4.8;4.5;;;;;;
67700;SPS30;55380;54.156;18.708;2023-03-26T01:54:00;4.8;;4.8;4.6;;;;;;
67700;SPS30;55380;54.156;18.708;2023-03-26T01:56:02;5.9;;5.9;5.6;;;;;;
67700;SPS30;55380;54.156;18.708;2023-03-26T01:58:02;7.0;;7.0;6.7;;;;;;
67700;SPS30;55380;54.156;18.708;2023-03-26T02:00:04;7.9;;7.9;7.5;;;;;;
67700;SPS30;55380;54.156;18.708;2023-03-26T02:02:02;8.3;;8.2;7.7;;;;;;
67700;SPS30;55380;54.156;18.708;2023-03-26T02:04:01;8.5;;8.5;8.0;;;;;;
67700;SPS30;55380;54.156;18.708;2023-03-26T02:06:01;7.0;;7.0;6.6;;;;;;
67700;SPS30;55380;54.156;18.708;2023-03-26T02:08:02;6.8;;6.8;6.4;;;;;;
67700;SPS30;55380;54.156;18.708;2023-03-26T02:10:02;6.4;;6.4;6.1;;;;;;
67700;SPS30;55380;54.156;18.708;2023-03-26T02:12:00;6.5;;6.5;6.1;;;;;;
67700;SPS30;55380;54.156;18.708;2023-03-26T02:14:00;5.9;;5.9;5.6;;;;;;
67700;SPS30;55380;54.156;18.708;2023-03-26T02:16:01;6.1;;6.1;5.8;;;;;;
67700;SPS30;55380;54.156;18.708;2023-03-26T02:18:00;5.9;;5.9;5.6;;;;;;
67700;SPS30;55380;54.156;18.708;2023-03-26T02:20:00;5.9;;5.9;5.6;;;;;;
67700;SPS30;55380;54.156;18.708;2023-03-26T02:22:00;5.5;;5.5;5.2;;;;;;
67700;SPS30;55380;54.156;18.708;2023-03-26T02:24:00;6.1;;6.1;5.7;;;;;;
67700;SPS30;55380;54.156;18.708;2023-03-26T02:26:01;5.5;;5.5;5.2;;;;;;
67700;SPS30;55380;54.156;18.708;2023-03-26T02:28:00;5.6;;5.6;5.3;;;;;;
67700;SPS30;55380;54.156;18.708;2023-03-26T02:30:00;5.8;;5.8;5.5;;;;;;
67700;SPS30;55380;54.156;18.708;2023-03-26T02:32:00;5.3;;5.3;5.0;;;;;;
67700;SPS30;55380;54.156;18.708;2023-03-26T02:34:00;6.0;;6.0;5.7;;;;;;
67700;SPS30;55380;54.156;18.708;2023-03-26T02:36:00;5.9;;5.9;5.6;;;;;;
67700;SPS30;55380;54.156;18.708;2023-03-26T02:38:00;5.5;;5.5;5.2;;;;;;
67700;SPS30;55380;54.156;18.708;2023-03-26T02:40:00;5.6;;5.6;5.3;;;;;;
67700;SPS30;55380;54.156;18.708;2023-03-26T02:42:00;5.3;;5.3;5.0;;;;;;
67700;SPS30;55380;54.156;18.708;2023-03-26T02:44:00;5.3;;5.3;5.1;;;;;;
67700;SPS30;55380;54.156;18.708;2023-03-26T02:46:00;5.1;;5.1;4.8;;;;;;
67700;SPS30;55380;54.156;18.708;2023-03-26T02:48:00;5.2;;5.2;4.9;;;;;;
67700;SPS30;55380;54.156;18.708;2023-03-26T02:50:00;5.3;;5.3;5.0;;;;;;
67700;SPS30;55380;54.156;18.708;2023-03-26T02:52:00;5.2;;5.2;4.9;;;;;;
67700;SPS30;55380;54.156;18.708;2023-03-26T02:54:00;6.6;;6.6;6.3;;;;;;
67700;SPS30;55380;54.156;18.708;2023-03-26T02:56:00;5.1;;5.1;4.8;;;;;;
67700;SPS30;55380;54.156;18.708;2023-03-26T02:58:00;4.7;;4.7;4.5;;;;;;
67700;SPS30;55380;54.156;18.708;2023-03-26T03:00:00;5.0;;5.0;4.8;;;;;;
67700;SPS30;55380;54.156;18.708;2023-03-26T03:02:00;5.0;;5.0;4.8;;;;;;
67700;SPS30;55380;54.156;18.708;2023-03-26T03:04:00;4.9;;4.9;4.6;;;;;;
67700;SPS30;55380;54.156;18.708;2023-03-26T03:06:00;4.9;;4.9;4.7;;;;;;
67700;SPS30;55380;54.156;18.708;2023-03-26T03:08:00;4.6;;4.6;4.4;;;;;;
67700;SPS30;55380;54.156;18.708;2023-03-26T03:10:00;4.7;;4.7;4.4;;;;;;
67700;SPS30;55380;54.156;18.708;2023-03-26T03:12:00;4.6;;4.6;4.3;;;;;;
67700;SPS30;55380;54.156;18.708;2023-03-26T03:14:00;4.7;;4.7;4.5;;;;;;
67700;SPS30;55380;54.156;18.708;2023-03-26T03:16:00;5.1;;5.1;4.8;;;;;;
67700;SPS30;55380;54.156;18.708;2023-03-26T03:18:00;5.0;;5.0;4.7;;;;;;
67700;SPS30;55380;54.156;18.708;2023-03-26T03:20:00;5.0;;5.0;4.7;;;;;;
67700;SPS30;55380;54.156;18.708;2023-03-26T03:22:00;4.9;;4.9;4.6;;;;;;
67700;SPS30;55380;54.156;18.708;2023-03-26T03:24:00;4.7;;4.7;4.5;;;;;;
67700;SPS30;55380;54.156;18.708;2023-03-26T03:26:00;5.1;;5.1;4.8;;;;;;
67700;SPS30;55380;54.156;18.708;2023-03-26T03:28:00;4.7;;4.7;4.5;;;;;;
67700;SPS30;55380;54.156;18.708;2023-03-26T03:30:00;4.8;;4.8;4.5;;;;;;
67700;SPS30;55380;54.156;18.708;2023-03-26T03:32:00;5.4;;5.4;5.1;;;;;;
67700;SPS30;55380;54.156;18.708;2023-03-26T03:34:00;5.0;;5.0;4.7;;;;;;
67700;SPS30;55380;54.156;18.708;2023-03-26T03:36:00;4.8;;4.8;4.6;;;;;;
67700;SPS30;55380;54.156;18.708;2023-03-26T03:38:00;4.6;;4.6;4.4;;;;;;
67700;SPS30;55380;54.156;18.708;2023-03-26T03:40:00;4.7;;4.7;4.4;;;;;;
67700;SPS30;55380;54.156;18.708;2023-03-26T03:42:00;5.0;;5.0;4.7;;;;;;
67700;SPS30;55380;54.156;18.708;2023-03-26T03:44:00;4.6;;4.6;4.3;;;;;;
67700;SPS30;55380;54.156;18.708;2023-03-26T03:46:00;4.8;;4.8;4.6;;;;;;
67700;SPS30;55380;54.156;18.708;2023-03-26T03:48:00;4.9;;4.9;4.6;;;;;;
67700;SPS30;55380;54.156;18.708;2023-03-26T03:50:00;4.8;;4.8;4.5;;;;;;
67700;SPS30;55380;54.156;18.708;2023-03-26T03:52:00;5.5;;5.5;5.2;;;;;;
67700;SPS30;55380;54.156;18.708;2023-03-26T03:54:00;5.2;;5.2;4.9;;;;;;
67700;SPS30;55380;54.156;18.708;2023-03-26T03:56:00;4.7;;4.7;4.4;;;;;;
67700;SPS30;55380;54.156;18.708;2023-03-26T03:58:00;4.7;;4.7;4.4;;;;;;
67700;SPS30;55380;54.156;18.708;2023-03-26T04:00:00;4.6;;4.6;4.4;;;;;;
67700;SPS30;55380;54.156;18.708;2023-03-26T04:02:00;4.4;;4.4;4.2;;;;;;
67700;SPS30;55380;54.156;18.708;2023-03-26T04:04:00;5.0;;5.0;4.7;;;;;;
67700;SPS30;55380;54.156;18.708;2023-03-26T04:06:00;5.1;;5.1;4.8;;;;;;
67700;SPS30;55380;54.156;18.708;2023-03-26T04:08:00;5.0;;5.0;4.7;;;;;;
67700;SPS30;55380;54.156;18.708;2023-03-26T04:10:00;5.0;;5.0;4.7;;;;;;
67700;SPS30;55380;54.156;18.708;2023-03-26T04:12:00;4.7;;4.7;4.5;;;;;;
67700;SPS30;55380;54.156;18.708;2023-03-26T04:14:00;5.5;;5.5;5.2;;;;;;
67700;SPS30;55380;54.156;18.708;2023-03-26T04:16:00;5.0;;5.0;4.8;;;;;;
67700;SPS30;55380;54.156;18.708;2023-03-26T04:18:00;5.5;;5.5;5.2;;;;;;
67700;SPS30;55380;54.156;18.708;2023-03-26T04:20:00;5.6;;5.6;5.2;;;;;;
67700;SPS30;55380;54.156;18.708;2023-03-26T04:22:00;5.3;;5.3;5.0;;;;;;
67700;SPS30;55380;54.156;18.708;2023-03-26T04:24:00;5.9;;5.9;5.5;;;;;;
67700;SPS30;55380;54.156;18.708;2023-03-26T04:26:00;5.9;;5.9;5.6;;;;;;
67700;SPS30;55380;54.156;18.708;2023-03-26T04:28:00;5.9;;5.9;5.5;;;;;;
67700;SPS30;55380;54.156;18.708;2023-03-26T04:30:00;6.0;;6.0;5.6;;;;;;
67700;SPS30;55380;54.156;18.708;2023-03-26T04:32:00;6.3;;6.3;5.9;;;;;;
67700;SPS30;55380;54.156;18.708;2023-03-26T04:34:03;6.4;;6.4;6.0;;;;;;
67700;SPS30;55380;54.156;18.708;2023-03-26T04:36:00;6.6;;6.6;6.3;;;;;;
67700;SPS30;55380;54.156;18.708;2023-03-26T04:38:00;6.7;;6.7;6.3;;;;;;
67700;SPS30;55380;54.156;18.708;2023-03-26T04:40:00;5.6;;5.6;5.3;;;;;;
67700;SPS30;55380;54.156;18.708;2023-03-26T04:42:00;5.7;;5.7;5.4;;;;;;
67700;SPS30;55380;54.156;18.708;2023-03-26T04:44:00;5.5;;5.5;5.2;;;;;;
67700;SPS30;55380;54.156;18.708;2023-03-26T04:46:00;5.8;;5.8;5.5;;;;;;
67700;SPS30;55380;54.156;18.708;2023-03-26T04:48:00;6.5;;6.5;6.1;;;;;;
67700;SPS30;55380;54.156;18.708;2023-03-26T04:50:00;6.0;;6.0;5.7;;;;;;
67700;SPS30;55380;54.156;18.708;2023-03-26T04:52:00;5.7;;5.7;5.4;;;;;;
67700;SPS30;55380;54.156;18.708;2023-03-26T04:54:00;5.8;;5.8;5.5;;;;;;
67700;SPS30;55380;54.156;18.708;2023-03-26T04:56:02;5.7;;5.7;5.4;;;;;;
67700;SPS30;55380;54.156;18.708;2023-03-26T04:58:00;5.3;;5.3;5.0;;;;;;
67700;SPS30;55380;54.156;18.708;2023-03-26T05:00:00;5.1;;5.1;4.8;;;;;;
67700;SPS30;55380;54.156;18.708;2023-03-26T05:02:00;4.7;;4.7;4.5;;;;;;
67700;SPS30;55380;54.156;18.708;2023-03-26T05:04:00;4.9;;4.9;4.6;;;;;;
67700;SPS30;55380;54.156;18.708;2023-03-26T05:06:00;4.6;;4.6;4.3;;;;;;
67700;SPS30;55380;54.156;18.708;2023-03-26T05:08:00;4.6;;4.6;4.3;;;;;;
67700;SPS30;55380;54.156;18.708;2023-03-26T05:10:00;4.4;;4.4;4.1;;;;;;
67700;SPS30;55380;54.156;18.708;2023-03-26T05:12:00;4.2;;4.2;4.0;;;;;;
67700;SPS30;55380;54.156;18.708;2023-03-26T05:14:00;4.8;;4.8;4.5;;;;;;
67700;SPS30;55380;54.156;18.708;2023-03-26T05:16:00;4.4;;4.4;4.2;;;;;;
67700;SPS30;55380;54.156;18.708;2023-03-26T05:18:00;3.7;;3.7;3.5;;;;;;
67700;SPS30;55380;54.156;18.708;2023-03-26T05:20:00;3.7;;3.7;3.5;;;;;;
67700;SPS30;55380;54.156;18.708;2023-03-26T05:22:00;3.3;;3.3;3.2;;;;;;
67700;SPS30;55380;54.156;18.708;2023-03-26T05:24:00;2.6;;2.6;2.5;;;;;;
67700;SPS30;55380;54.156;18.708;2023-03-26T05:26:00;2.3;;2.3;2.2;;;;;;
67700;SPS30;55380;54.156;18.708;2023-03-26T05:28:00;1.9;;1.9;1.8;;;;;;
67700;SPS30;55380;54.156;18.708;2023-03-26T05:30:00;2.1;;2.1;2.0;;;;;;
67700;SPS30;55380;54.156;18.708;2023-03-26T05:32:00;1.8;;1.8;1.7;;;;;;
67700;SPS30;55380;54.156;18.708;2023-03-26T05:34:00;1.3;;1.3;1.2;;;;;;
67700;SPS30;55380;54.156;18.708;2023-03-26T05:36:00;1.3;;1.3;1.2;;;;;;
67700;SPS30;55380;54.156;18.708;2023-03-26T05:38:00;1.2;;1.2;1.2;;;;;;
67700;SPS30;55380;54.156;18.708;2023-03-26T05:40:00;1.3;;1.3;1.2;;;;;;
67700;SPS30;55380;54.156;18.708;2023-03-26T05:42:00;1.2;;1.2;1.1;;;;;;
67700;SPS30;55380;54.156;18.708;2023-03-26T05:44:00;1.2;;1.2;1.2;;;;;;
67700;SPS30;55380;54.156;18.708;2023-03-26T05:46:00;1.1;;1.1;1.1;;;;;;
67700;SPS30;55380;54.156;18.708;2023-03-26T05:48:00;1.1;;1.1;1.1;;;;;;
67700;SPS30;55380;54.156;18.708;2023-03-26T05:50:00;0.8;;0.8;0.7;;;;;;
67700;SPS30;55380;54.156;18.708;2023-03-26T05:52:00;0.9;;0.9;0.8;;;;;;
67700;SPS30;55380;54.156;18.708;2023-03-26T05:54:00;0.7;;0.7;0.7;;;;;;
67700;SPS30;55380;54.156;18.708;2023-03-26T05:56:00;0.7;;0.7;0.7;;;;;;
67700;SPS30;55380;54.156;18.708;2023-03-26T05:58:00;0.6;;0.6;0.6;;;;;;
67700;SPS30;55380;54.156;18.708;2023-03-26T06:00:00;0.7;;0.7;0.6;;;;;;
67700;SPS30;55380;54.156;18.708;2023-03-26T06:02:00;0.7;;0.7;0.6;;;;;;
67700;SPS30;55380;54.156;18.708;2023-03-26T06:04:00;0.7;;0.7;0.6;;;;;;
67700;SPS30;55380;54.156;18.708;2023-03-26T06:06:00;0.8;;0.8;0.7;;;;;;
67700;SPS30;55380;54.156;18.708;2023-03-26T06:08:00;0.7;;0.7;0.7;;;;;;
67700;SPS30;55380;54.156;18.708;2023-03-26T06:10:00;0.6;;0.6;0.6;;;;;;
67700;SPS30;55380;54.156;18.708;2023-03-26T06:12:00;0.5;;0.5;0.5;;;;;;
67700;SPS30;55380;54.156;18.708;2023-03-26T06:14:00;0.7;;0.7;0.6;;;;;;
67700;SPS30;55380;54.156;18.708;2023-03-26T06:16:00;0.6;;0.6;0.6;;;;;;
67700;SPS30;55380;54.156;18.708;2023-03-26T06:18:00;0.7;;0.7;0.6;;;;;;
67700;SPS30;55380;54.156;18.708;2023-03-26T06:20:00;0.6;;0.6;0.5;;;;;;
67700;SPS30;55380;54.156;18.708;2023-03-26T06:22:00;0.5;;0.5;0.5;;;;;;
67700;SPS30;55380;54.156;18.708;2023-03-26T06:24:00;0.6;;0.6;0.5;;;;;;
67700;SPS30;55380;54.156;18.708;2023-03-26T06:26:00;0.6;;0.6;0.6;;;;;;
67700;SPS30;55380;54.156;18.708;2023-03-26T06:28:00;0.6;;0.6;0.5;;;;;;
67700;SPS30;55380;54.156;18.708;2023-03-26T06:30:00;0.5;;0.5;0.5;;;;;;
67700;SPS30;55380;54.156;18.708;2023-03-26T06:32:00;0.7;;0.7;0.6;;;;;;
67700;SPS30;55380;54.156;18.708;2023-03-26T06:34:00;0.5;;0.5;0.5;;;;;;
67700;SPS30;55380;54.156;18.708;2023-03-26T06:36:00;0.5;;0.5;0.5;;;;;;
67700;SPS30;55380;54.156;18.708;2023-03-26T06:38:00;10.5;;10.5;9.9;;;;;;
67700;SPS30;55380;54.156;18.708;2023-03-26T06:40:00;4.9;;4.8;4.5;;;;;;
67700;SPS30;55380;54.156;18.708;2023-03-26T06:42:00;0.8;;0.8;0.8;;;;;;
67700;SPS30;55380;54.156;18.708;2023-03-26T06:44:00;0.6;;0.6;0.6;;;;;;
67700;SPS30;55380;54.156;18.708;2023-03-26T06:46:00;0.7;;0.7;0.7;;;;;;
67700;SPS30;55380;54.156;18.708;2023-03-26T06:48:00;0.8;;0.8;0.7;;;;;;
67700;SPS30;55380;54.156;18.708;2023-03-26T06:50:00;0.6;;0.6;0.6;;;;;;
67700;SPS30;55380;54.156;18.708;2023-03-26T06:52:00;0.7;;0.7;0.6;;;;;;
67700;SPS30;55380;54.156;18.708;2023-03-26T06:54:00;0.6;;0.6;0.5;;;;;;
67700;SPS30;55380;54.156;18.708;2023-03-26T06:56:00;0.6;;0.6;0.5;;;;;;
67700;SPS30;55380;54.156;18.708;2023-03-26T06:58:00;0.6;;0.6;0.5;;;;;;
67700;SPS30;55380;54.156;18.708;2023-03-26T07:00:00;1.4;;1.4;1.3;;;;;;
67700;SPS30;55380;54.156;18.708;2023-03-26T07:02:00;2.2;;2.1;2.0;;;;;;
67700;SPS30;55380;54.156;18.708;2023-03-26T07:04:00;5.0;;5.0;4.7;;;;;;
67700;SPS30;55380;54.156;18.708;2023-03-26T07:06:00;6.5;;6.4;6.1;;;;;;
67700;SPS30;55380;54.156;18.708;2023-03-26T07:08:00;6.8;;6.7;6.3;;;;;;
67700;SPS30;55380;54.156;18.708;2023-03-26T07:10:00;4.3;;4.3;4.1;;;;;;
67700;SPS30;55380;54.156;18.708;2023-03-26T07:12:00;2.5;;2.5;2.3;;;;;;
67700;SPS30;55380;54.156;18.708;2023-03-26T07:14:00;2.3;;2.3;2.2;;;;;;
67700;SPS30;55380;54.156;18.708;2023-03-26T07:16:00;1.5;;1.5;1.5;;;;;;
67700;SPS30;55380;54.156;18.708;2023-03-26T07:18:00;1.6;;1.6;1.5;;;;;;
67700;SPS30;55380;54.156;18.708;2023-03-26T07:20:00;1.2;;1.2;1.1;;;;;;
67700;SPS30;55380;54.156;18.708;2023-03-26T07:22:00;1.1;;1.1;1.0;;;;;;
67700;SPS30;55380;54.156;18.708;2023-03-26T07:24:00;1.0;;1.0;0.9;;;;;;
67700;SPS30;55380;54.156;18.708;2023-03-26T07:26:00;1.1;;1.1;1.0;;;;;;
67700;SPS30;55380;54.156;18.708;2023-03-26T07:28:03;1.5;;1.5;1.4;;;;;;
67700;SPS30;55380;54.156;18.708;2023-03-26T07:30:02;1.2;;1.2;1.1;;;;;;
67700;SPS30;55380;54.156;18.708;2023-03-26T07:32:02;1.3;;1.3;1.2;;;;;;
67700;SPS30;55380;54.156;18.708;2023-03-26T07:34:02;1.1;;1.1;1.0;;;;;;
67700;SPS30;55380;54.156;18.708;2023-03-26T07:36:02;1.4;;1.4;1.4;;;;;;
67700;SPS30;55380;54.156;18.708;2023-03-26T07:38:17;1.6;;1.6;1.5;;;;;;
67700;SPS30;55380;54.156;18.708;2023-03-26T07:40:01;1.4;;1.4;1.4;;;;;;
67700;SPS30;55380;54.156;18.708;2023-03-26T07:42:01;1.7;;1.7;1.6;;;;;;
67700;SPS30;55380;54.156;18.708;2023-03-26T07:44:05;1.9;;1.9;1.8;;;;;;
67700;SPS30;55380;54.156;18.708;2023-03-26T07:46:00;1.7;;1.7;1.6;;;;;;
67700;SPS30;55380;54.156;18.708;2023-03-26T07:48:00;1.8;;1.8;1.7;;;;;;
67700;SPS30;55380;54.156;18.708;2023-03-26T07:50:00;1.8;;1.8;1.7;;;;;;
67700;SPS30;55380;54.156;18.708;2023-03-26T07:52:00;1.8;;1.8;1.7;;;;;;
67700;SPS30;55380;54.156;18.708;2023-03-26T07:54:01;2.0;;2.0;1.9;;;;;;
67700;SPS30;55380;54.156;18.708;2023-03-26T07:56:01;1.8;;1.8;1.7;;;;;;
67700;SPS30;55380;54.156;18.708;2023-03-26T07:58:03;1.9;;1.9;1.8;;;;;;
67700;SPS30;55380;54.156;18.708;2023-03-26T08:00:02;1.6;;1.6;1.5;;;;;;
67700;SPS30;55380;54.156;18.708;2023-03-26T08:02:11;1.6;;1.6;1.5;;;;;;
67700;SPS30;55380;54.156;18.708;2023-03-26T08:04:04;1.7;;1.7;1.6;;;;;;
67700;SPS30;55380;54.156;18.708;2023-03-26T08:06:02;1.6;;1.6;1.5;;;;;;
67700;SPS30;55380;54.156;18.708;2023-03-26T08:08:02;1.9;;1.9;1.8;;;;;;
67700;SPS30;55380;54.156;18.708;2023-03-26T08:10:02;2.0;;2.0;1.8;;;;;;
67700;SPS30;55380;54.156;18.708;2023-03-26T08:12:02;2.0;;2.0;1.9;;;;;;
67700;SPS30;55380;54.156;18.708;2023-03-26T08:14:02;2.1;;2.1;2.0;;;;;;
67700;SPS30;55380;54.156;18.708;2023-03-26T08:16:02;1.7;;1.7;1.6;;;;;;
67700;SPS30;55380;54.156;18.708;2023-03-26T08:18:02;1.4;;1.4;1.3;;;;;;
67700;SPS30;55380;54.156;18.708;2023-03-26T08:20:03;1.4;;1.4;1.3;;;;;;
67700;SPS30;55380;54.156;18.708;2023-03-26T08:22:01;1.6;;1.6;1.5;;;;;;
67700;SPS30;55380;54.156;18.708;2023-03-26T08:24:00;1.6;;1.6;1.5;;;;;;
67700;SPS30;55380;54.156;18.708;2023-03-26T08:26:02;1.6;;1.6;1.5;;;;;;
67700;SPS30;55380;54.156;18.708;2023-03-26T08:28:03;1.7;;1.7;1.6;;;;;;
67700;SPS30;55380;54.156;18.708;2023-03-26T08:30:02;1.5;;1.5;1.4;;;;;;
67700;SPS30;55380;54.156;18.708;2023-03-26T08:32:00;1.5;;1.5;1.5;;;;;;
67700;SPS30;55380;54.156;18.708;2023-03-26T08:34:00;1.7;;1.7;1.6;;;;;;
67700;SPS30;55380;54.156;18.708;2023-03-26T08:36:00;1.7;;1.7;1.6;;;;;;
67700;SPS30;55380;54.156;18.708;2023-03-26T08:38:00;1.8;;1.8;1.7;;;;;;
67700;SPS30;55380;54.156;18.708;2023-03-26T08:40:00;1.3;;1.3;1.2;;;;;;
67700;SPS30;55380;54.156;18.708;2023-03-26T08:42:06;1.1;;1.1;1.0;;;;;;
67700;SPS30;55380;54.156;18.708;2023-03-26T08:44:04;0.8;;0.8;0.8;;;;;;
67700;SPS30;55380;54.156;18.708;2023-03-26T08:46:05;0.7;;0.7;0.7;;;;;;
67700;SPS30;55380;54.156;18.708;2023-03-26T08:54:06;1.0;;1.0;0.9;;;;;;
67700;SPS30;55380;54.156;18.708;2023-03-26T08:56:00;0.7;;0.7;0.7;;;;;;
67700;SPS30;55380;54.156;18.708;2023-03-26T08:58:09;0.5;;0.5;0.5;;;;;;
67700;SPS30;55380;54.156;18.708;2023-03-26T09:00:02;0.5;;0.5;0.4;;;;;;
67700;SPS30;55380;54.156;18.708;2023-03-26T09:02:04;0.5;;0.5;0.5;;;;;;
67700;SPS30;55380;54.156;18.708;2023-03-26T09:08:04;0.9;;0.9;0.9;;;;;;
67700;SPS30;55380;54.156;18.708;2023-03-26T09:10:05;0.9;;0.9;0.8;;;;;;
67700;SPS30;55380;54.156;18.708;2023-03-26T09:14:07;0.7;;0.7;0.7;;;;;;
67700;SPS30;55380;54.156;18.708;2023-03-26T09:22:06;0.6;;0.6;0.5;;;;;;
67700;SPS30;55380;54.156;18.708;2023-03-26T09:24:05;0.6;;0.6;0.5;;;;;;
67700;SPS30;55380;54.156;18.708;2023-03-26T09:26:03;0.7;;0.7;0.7;;;;;;
67700;SPS30;55380;54.156;18.708;2023-03-26T09:28:07;1.0;;1.0;0.9;;;;;;
67700;SPS30;55380;54.156;18.708;2023-03-26T09:30:08;0.7;;0.7;0.7;;;;;;
67700;SPS30;55380;54.156;18.708;2023-03-26T09:32:02;0.6;;0.6;0.6;;;;;;
67700;SPS30;55380;54.156;18.708;2023-03-26T09:34:04;0.7;;0.7;0.6;;;;;;
67700;SPS30;55380;54.156;18.708;2023-03-26T09:38:01;1.0;;1.0;0.9;;;;;;
67700;SPS30;55380;54.156;18.708;2023-03-26T09:40:03;1.1;;1.1;1.0;;;;;;
67700;SPS30;55380;54.156;18.708;2023-03-26T09:42:04;0.8;;0.8;0.7;;;;;;
67700;SPS30;55380;54.156;18.708;2023-03-26T09:44:09;0.9;;0.9;0.9;;;;;;
67700;SPS30;55380;54.156;18.708;2023-03-26T09:46:02;1.1;;1.1;1.1;;;;;;
67700;SPS30;55380;54.156;18.708;2023-03-26T09:48:04;1.0;;1.0;1.0;;;;;;
67700;SPS30;55380;54.156;18.708;2023-03-26T09:50:07;1.2;;1.2;1.1;;;;;;
67700;SPS30;55380;54.156;18.708;2023-03-26T09:52:04;1.1;;1.1;1.0;;;;;;
67700;SPS30;55380;54.156;18.708;2023-03-26T09:54:04;1.1;;1.1;1.0;;;;;;
67700;SPS30;55380;54.156;18.708;2023-03-26T09:56:03;1.1;;1.1;1.0;;;;;;
67700;SPS30;55380;54.156;18.708;2023-03-26T09:58:05;1.1;;1.1;1.0;;;;;;
67700;SPS30;55380;54.156;18.708;2023-03-26T10:00:02;1.2;;1.2;1.1;;;;;;
67700;SPS30;55380;54.156;18.708;2023-03-26T10:02:03;1.1;;1.1;1.0;;;;;;
67700;SPS30;55380;54.156;18.708;2023-03-26T10:04:05;0.9;;0.9;0.8;;;;;;
67700;SPS30;55380;54.156;18.708;2023-03-26T10:06:05;1.0;;1.0;1.0;;;;;;
67700;SPS30;55380;54.156;18.708;2023-03-26T10:08:03;0.9;;0.9;0.8;;;;;;
67700;SPS30;55380;54.156;18.708;2023-03-26T10:10:00;0.9;;0.9;0.9;;;;;;
67700;SPS30;55380;54.156;18.708;2023-03-26T10:12:05;0.9;;0.9;0.8;;;;;;
67700;SPS30;55380;54.156;18.708;2023-03-26T10:14:02;0.8;;0.8;0.8;;;;;;
67700;SPS30;55380;54.156;18.708;2023-03-26T10:16:04;0.9;;0.9;0.8;;;;;;
67700;SPS30;55380;54.156;18.708;2023-03-26T10:18:04;0.8;;0.8;0.8;;;;;;
67700;SPS30;55380;54.156;18.708;2023-03-26T10:20:04;0.9;;0.9;0.8;;;;;;
67700;SPS30;55380;54.156;18.708;2023-03-26T10:22:01;1.1;;1.1;1.1;;;;;;
67700;SPS30;55380;54.156;18.708;2023-03-26T10:24:04;0.8;;0.8;0.8;;;;;;
67700;SPS30;55380;54.156;18.708;2023-03-26T10:26:04;0.8;;0.8;0.7;;;;;;
67700;SPS30;55380;54.156;18.708;2023-03-26T10:28:04;1.1;;1.1;1.1;;;;;;
67700;SPS30;55380;54.156;18.708;2023-03-26T10:30:05;1.3;;1.3;1.2;;;;;;
67700;SPS30;55380;54.156;18.708;2023-03-26T10:32:04;1.2;;1.2;1.1;;;;;;
67700;SPS30;55380;54.156;18.708;2023-03-26T10:34:02;1.3;;1.3;1.2;;;;;;
67700;SPS30;55380;54.156;18.708;2023-03-26T10:36:06;1.5;;1.5;1.4;;;;;;
67700;SPS30;55380;54.156;18.708;2023-03-26T10:38:04;1.6;;1.6;1.5;;;;;;
67700;SPS30;55380;54.156;18.708;2023-03-26T10:40:06;1.8;;1.8;1.7;;;;;;
67700;SPS30;55380;54.156;18.708;2023-03-26T10:42:04;1.8;;1.8;1.7;;;;;;
67700;SPS30;55380;54.156;18.708;2023-03-26T10:44:04;1.6;;1.6;1.6;;;;;;
67700;SPS30;55380;54.156;18.708;2023-03-26T10:48:05;1.9;;1.9;1.8;;;;;;
67700;SPS30;55380;54.156;18.708;2023-03-26T10:50:02;2.5;;2.5;2.4;;;;;;
67700;SPS30;55380;54.156;18.708;2023-03-26T10:52:00;1.1;;1.1;1.1;;;;;;
67700;SPS30;55380;54.156;18.708;2023-03-26T10:54:01;1.1;;1.1;1.1;;;;;;
67700;SPS30;55380;54.156;18.708;2023-03-26T10:56:04;1.0;;1.0;0.9;;;;;;
67700;SPS30;55380;54.156;18.708;2023-03-26T10:58:02;1.4;;1.4;1.4;;;;;;
67700;SPS30;55380;54.156;18.708;2023-03-26T11:00:04;1.4;;1.4;1.4;;;;;;
67700;SPS30;55380;54.156;18.708;2023-03-26T11:02:04;1.6;;1.6;1.5;;;;;;
67700;SPS30;55380;54.156;18.708;2023-03-26T11:04:02;1.7;;1.7;1.6;;;;;;
67700;SPS30;55380;54.156;18.708;2023-03-26T11:06:02;1.9;;1.9;1.8;;;;;;
67700;SPS30;55380;54.156;18.708;2023-03-26T11:08:01;2.0;;2.0;1.9;;;;;;
67700;SPS30;55380;54.156;18.708;2023-03-26T11:10:01;1.9;;1.9;1.8;;;;;;
67700;SPS30;55380;54.156;18.708;2023-03-26T11:12:01;2.0;;2.0;1.9;;;;;;
67700;SPS30;55380;54.156;18.708;2023-03-26T11:14:02;2.2;;2.2;2.1;;;;;;
67700;SPS30;55380;54.156;18.708;2023-03-26T11:16:01;2.0;;2.0;1.9;;;;;;
67700;SPS30;55380;54.156;18.708;2023-03-26T11:18:02;1.6;;1.6;1.5;;;;;;
67700;SPS30;55380;54.156;18.708;2023-03-26T11:20:02;1.5;;1.5;1.4;;;;;;
67700;SPS30;55380;54.156;18.708;2023-03-26T11:22:02;1.4;;1.4;1.3;;;;;;
67700;SPS30;55380;54.156;18.708;2023-03-26T11:24:04;2.4;;2.4;2.3;;;;;;
67700;SPS30;55380;54.156;18.708;2023-03-26T11:26:04;2.3;;2.3;2.2;;;;;;
67700;SPS30;55380;54.156;18.708;2023-03-26T11:28:03;1.6;;1.6;1.5;;;;;;
67700;SPS30;55380;54.156;18.708;2023-03-26T11:30:02;1.6;;1.6;1.5;;;;;;
67700;SPS30;55380;54.156;18.708;2023-03-26T11:32:02;1.6;;1.6;1.5;;;;;;
67700;SPS30;55380;54.156;18.708;2023-03-26T11:34:01;1.6;;1.6;1.5;;;;;;